Time;durP1;ratioP1;P1;durP2;ratioP2;P2;SDS_P1;SDS_P2;PMS_P1;PMS_P2;Temp;Humidity;BMP_temperature;BMP_pressure;BME280_temperature;BME280_humidity;BME280_pressure;Samples;Min_cycle;Max_cycle;Signal;HPM_P1;HPM_P2
2022/10/10 00:00:51;;;;;;;61.83;25.20;;;;;;;8.42;100.00;101684.89;5112494;57;1141155;-66
2022/10/10 00:05:58;;;;;;;21.30;11.47;;;;;;;8.34;100.00;101676.53;5131373;57;1143236;-69
2022/10/10 00:11:05;;;;;;;27.87;12.50;;;;;;;8.32;99.86;101670.94;5131742;57;1141184;-67
2022/10/10 00:16:13;;;;;;;25.55;12.10;;;;;;;8.29;100.00;101665.32;5073602;57;1139078;-72
2022/10/10 00:21:18;;;;;;;30.70;14.43;;;;;;;8.27;100.00;101655.78;5048380;58;1141302;-70
2022/10/10 00:26:24;;;;;;;35.70;14.73;;;;;;;8.17;100.00;101647.95;5048660;57;1141147;-69
2022/10/10 00:31:30;;;;;;;25.03;12.07;;;;;;;8.10;100.00;101643.44;5059445;58;1141216;-70
2022/10/10 00:36:36;;;;;;;22.67;10.80;;;;;;;8.10;100.00;101643.44;5067889;58;1141403;-67
2022/10/10 00:41:42;;;;;;;18.52;10.53;;;;;;;8.04;100.00;101641.13;5067796;58;1141170;-64
2022/10/10 00:46:48;;;;;;;25.63;11.10;;;;;;;7.98;100.00;101637.00;5067354;58;1141153;-70
2022/10/10 00:51:57;;;;;;;19.30;10.13;;;;;;;7.93;100.00;101629.80;4987039;58;1141127;-69
2022/10/10 00:57:12;;;;;;;24.57;11.30;;;;;;;7.89;100.00;101630.88;5049134;58;1141395;-69
2022/10/10 01:02:19;;;;;;;28.57;12.20;;;;;;;7.87;100.00;101628.77;5038762;58;1141172;-71
2022/10/10 01:07:29;;;;;;;25.43;11.77;;;;;;;7.90;100.00;101631.27;5067547;58;1140561;-68
2022/10/10 01:12:54;;;;;;;30.30;10.73;;;;;;;7.88;100.00;101629.63;5067890;58;1141196;-66
2022/10/10 01:18:29;;;;;;;26.45;11.65;;;;;;;7.83;100.00;101619.30;4987366;59;1143200;-69
2022/10/10 01:24:06;;;;;;;21.73;11.33;;;;;;;7.81;100.00;101613.72;4987060;59;1143327;-68
2022/10/10 01:29:38;;;;;;;24.50;12.67;;;;;;;7.76;100.00;101614.81;5028618;58;1143181;-70
2022/10/10 01:34:57;;;;;;;22.20;11.50;;;;;;;7.71;100.00;101601.47;5135778;57;1143360;-70
2022/10/10 01:40:19;;;;;;;29.90;14.13;;;;;;;7.63;100.00;101600.55;5165331;57;1143220;-65
2022/10/10 01:45:27;;;;;;;22.80;11.93;;;;;;;7.61;100.00;101593.17;5165412;57;1143220;-68
2022/10/10 01:50:38;;;;;;;26.30;13.20;;;;;;;7.58;100.00;101595.09;5119815;57;1143198;-67
2022/10/10 01:55:58;;;;;;;31.97;11.83;;;;;;;7.53;100.00;101592.67;5150891;57;1143303;-68
2022/10/10 02:01:29;;;;;;;24.03;12.20;;;;;;;7.50;100.00;101590.64;5165456;56;1143185;-65
2022/10/10 02:06:42;;;;;;;26.47;12.10;;;;;;;7.50;100.00;101591.96;5165549;56;1141117;-64
2022/10/10 02:11:50;;;;;;;22.87;13.17;;;;;;;7.39;100.00;101576.23;5132098;56;1141153;-70
2022/10/10 02:16:57;;;;;;;20.93;12.57;;;;;;;7.30;100.00;101572.73;5095058;57;1141153;-70
2022/10/10 02:22:05;;;;;;;24.10;11.40;;;;;;;7.27;100.00;101569.37;5080082;58;1140533;-69
2022/10/10 02:27:22;;;;;;;29.23;13.70;;;;;;;7.22;100.00;101562.16;5081248;57;1141168;-69
2022/10/10 02:32:44;;;;;;;26.20;14.23;;;;;;;7.16;100.00;101558.05;4965351;58;1141252;-64
2022/10/10 02:37:51;;;;;;;25.83;12.70;;;;;;;7.12;100.00;101550.37;5064443;58;1141257;-66
2022/10/10 02:43:01;;;;;;;21.47;11.53;;;;;;;7.09;100.00;101539.52;5061028;57;1141260;-67
2022/10/10 02:48:08;;;;;;;22.87;12.20;;;;;;;7.05;100.00;101540.58;5129249;57;1139015;-71
2022/10/10 02:53:13;;;;;;;33.70;15.20;;;;;;;6.98;100.00;101536.55;5068314;58;1139003;-69
2022/10/10 02:58:19;;;;;;;26.73;12.17;;;;;;;6.95;100.00;101532.73;5038784;58;1143240;-67
2022/10/10 03:03:25;;;;;;;26.83;13.37;;;;;;;6.91;100.00;101533.80;5093263;57;1143332;-67
2022/10/10 03:08:31;;;;;;;20.30;12.20;;;;;;;6.90;100.00;101537.34;5138706;56;1143145;-66
2022/10/10 03:13:37;;;;;;;24.27;13.23;;;;;;;6.88;100.00;101526.89;5132314;57;1143204;-65
2022/10/10 03:18:43;;;;;;;24.10;12.53;;;;;;;6.82;100.00;101525.88;5133308;57;1143453;-67
2022/10/10 03:23:50;;;;;;;31.33;12.37;;;;;;;6.77;100.00;101512.08;5126029;57;1143472;-66
2022/10/10 03:28:55;;;;;;;23.03;13.50;;;;;;;6.76;100.00;101512.15;5128803;57;1143065;-66
2022/10/10 03:34:02;;;;;;;25.50;12.73;;;;;;;6.76;100.00;101497.69;5124754;57;1143361;-68
2022/10/10 03:39:08;;;;;;;19.60;12.27;;;;;;;6.72;100.00;101494.37;5142480;57;1143198;-69
2022/10/10 03:44:14;;;;;;;24.70;11.87;;;;;;;6.73;100.00;101488.16;5144470;57;1143165;-65
2022/10/10 03:49:20;;;;;;;24.17;13.27;;;;;;;6.69;100.00;101484.84;5114003;57;1143288;-70
2022/10/10 03:54:25;;;;;;;23.10;13.37;;;;;;;6.68;100.00;101487.08;5129067;57;1143178;-71
2022/10/10 03:59:31;;;;;;;19.25;11.83;;;;;;;6.64;100.00;101484.20;5138947;57;1143140;-68
2022/10/10 04:04:37;;;;;;;21.37;11.87;;;;;;;6.64;100.00;101479.40;5167299;56;1143153;-64
2022/10/10 04:09:43;;;;;;;26.13;13.77;;;;;;;6.61;100.00;101475.59;5116979;57;1143198;-67
2022/10/10 04:14:50;;;;;;;22.73;12.87;;;;;;;6.56;100.00;101473.19;5102364;57;1143509;-67
2022/10/10 04:19:56;;;;;;;31.37;12.27;;;;;;;6.56;100.00;101467.94;5022757;57;1143214;-64
2022/10/10 04:25:01;;;;;;;16.93;11.63;;;;;;;6.54;100.00;101472.87;5049866;56;1143174;-71
2022/10/10 04:30:08;;;;;;;24.00;13.00;;;;;;;6.51;100.00;101464.66;5074743;56;1143397;-67
2022/10/10 04:35:14;;;;;;;29.37;12.73;;;;;;;6.48;100.00;101457.36;5076068;56;1143192;-67
2022/10/10 04:40:19;;;;;;;21.87;12.50;;;;;;;6.42;100.00;101454.55;5067177;56;1141132;-72
2022/10/10 04:45:25;;;;;;;25.33;12.90;;;;;;;6.41;100.00;101447.61;5006034;56;1143205;-69
2022/10/10 04:50:31;;;;;;;22.50;13.00;;;;;;;6.36;100.00;101436.45;5036506;56;1143279;-70
2022/10/10 04:55:38;;;;;;;25.37;14.67;;;;;;;6.34;100.00;101436.52;5071520;57;1143263;-66
2022/10/10 05:00:44;;;;;;;23.70;12.93;;;;;;;6.29;100.00;101439.80;5085399;57;1141034;-68
2022/10/10 05:05:50;;;;;;;22.40;12.60;;;;;;;6.27;100.00;101444.27;5074976;56;1143161;-69
2022/10/10 05:10:56;;;;;;;32.03;19.53;;;;;;;6.27;100.00;101444.73;5074835;57;1143363;-67
2022/10/10 05:16:02;;;;;;;29.13;15.63;;;;;;;6.27;100.00;101432.91;5069579;57;1144100;-67
2022/10/10 05:21:09;;;;;;;34.73;14.27;;;;;;;6.24;100.00;101422.56;5031289;56;1140979;-66
2022/10/10 05:26:19;;;;;;;25.77;13.73;;;;;;;6.22;100.00;101416.06;5066304;56;1143238;-66
2022/10/10 05:31:25;;;;;;;35.77;16.20;;;;;;;6.21;100.00;101422.70;5067639;57;1143157;-67
2022/10/10 05:36:30;;;;;;;53.00;26.97;;;;;;;6.19;100.00;101407.00;5121705;56;1143229;-66
2022/10/10 05:41:37;;;;;;;23.80;13.50;;;;;;;6.23;100.00;101407.72;5179852;56;1143350;-65
2022/10/10 05:46:43;;;;;;;25.87;14.27;;;;;;;6.29;100.00;101408.28;5106131;57;1143343;-67
2022/10/10 05:51:48;;;;;;;31.43;14.53;;;;;;;6.38;100.00;101409.65;5051186;57;1143241;-70
2022/10/10 05:56:54;;;;;;;19.13;11.43;;;;;;;6.49;100.00;101396.86;5022790;57;1143238;-70
2022/10/10 06:02:00;;;;;;;26.73;12.13;;;;;;;6.64;100.00;101393.52;4983402;57;1143281;-68
2022/10/10 06:07:06;;;;;;;23.97;11.07;;;;;;;6.84;100.00;101386.00;4984273;57;1143141;-69
2022/10/10 06:12:12;;;;;;;29.23;12.37;;;;;;;7.06;100.00;101380.06;4983036;57;1143308;-69
2022/10/10 06:17:17;;;;;;;15.83;10.17;;;;;;;7.25;100.00;101381.78;5069753;57;1141220;-69
2022/10/10 06:22:23;;;;;;;23.63;13.00;;;;;;;7.52;100.00;101373.80;5071004;57;1141177;-67
2022/10/10 06:27:29;;;;;;;19.20;9.90;;;;;;;7.72;100.00;101369.69;5072217;56;1141123;-65
2022/10/10 06:32:34;;;;;;;26.73;11.20;;;;;;;7.94;100.00;101367.25;5070341;57;1139081;-71
2022/10/10 06:37:41;;;;;;;15.10;8.97;;;;;;;8.15;100.00;101361.28;5137148;57;1141143;-64
2022/10/10 06:42:46;;;;;;;17.20;9.20;;;;;;;8.37;100.00;101357.44;5067113;56;1139108;-71
2022/10/10 06:47:54;;;;;;;21.97;10.27;;;;;;;8.57;100.00;101354.14;5036485;57;1139077;-69
2022/10/10 06:53:00;;;;;;;15.40;8.17;;;;;;;8.77;100.00;101351.24;5060140;57;1141297;-66
2022/10/10 06:58:06;;;;;;;15.43;8.63;;;;;;;9.03;100.00;101347.09;5072509;56;1139348;-71
2022/10/10 07:03:12;;;;;;;13.70;8.00;;;;;;;9.33;100.00;101349.73;5064659;56;1139076;-71
2022/10/10 07:08:19;;;;;;;13.80;8.87;;;;;;;9.51;100.00;101346.00;5074212;57;1139126;-72
2022/10/10 07:13:26;;;;;;;12.87;6.93;;;;;;;9.70;100.00;101338.67;5136138;56;1139211;-68
2022/10/10 07:18:32;;;;;;;16.13;7.53;;;;;;;9.91;98.33;101318.50;5080654;57;1139546;-66
2022/10/10 07:23:38;;;;;;;18.60;8.35;;;;;;;10.09;99.26;101314.21;5115152;57;1137078;-69
2022/10/10 07:28:45;;;;;;;12.60;7.83;;;;;;;10.17;98.44;101309.31;5089678;57;1139178;-70
2022/10/10 07:33:51;;;;;;;15.77;6.43;;;;;;;10.31;97.80;101304.49;5000930;58;1139096;-68
2022/10/10 07:38:56;;;;;;;11.73;7.03;;;;;;;10.45;96.49;101303.60;5036835;57;1138896;-67
2022/10/10 07:44:02;;;;;;;12.75;7.22;;;;;;;10.71;95.90;101312.48;5027583;57;1139018;-70
2022/10/10 07:49:08;;;;;;;9.83;7.40;;;;;;;10.87;94.00;101306.08;5016177;57;1137015;-73
2022/10/10 07:54:15;;;;;;;13.13;6.40;;;;;;;10.90;93.15;101293.12;5067005;57;1222553;-69
2022/10/10 07:59:21;;;;;;;9.60;6.57;;;;;;;10.99;93.00;101308.88;5063804;57;1140875;-70
2022/10/10 08:04:27;;;;;;;15.00;7.40;;;;;;;11.06;93.32;101310.16;5061933;56;1139019;-71
2022/10/10 08:09:33;;;;;;;12.17;6.33;;;;;;;11.22;93.32;101300.23;5078024;56;1141358;-68
2022/10/10 08:14:39;;;;;;;16.57;8.00;;;;;;;11.39;92.48;101293.31;5093689;57;1141157;-67
2022/10/10 08:19:44;;;;;;;9.77;6.90;;;;;;;11.54;91.41;101280.81;4960723;58;1141232;-65
2022/10/10 08:24:50;;;;;;;19.80;8.80;;;;;;;11.64;90.04;101274.75;5006414;57;1139178;-71
2022/10/10 08:29:56;;;;;;;13.73;7.63;;;;;;;11.72;91.73;101271.58;5026405;58;1140681;-68
2022/10/10 08:35:01;;;;;;;10.83;6.47;;;;;;;11.90;90.31;101270.80;5018455;57;1141173;-68
2022/10/10 08:40:10;;;;;;;16.40;7.65;;;;;;;12.05;88.78;101262.22;4991061;57;1140796;-65
2022/10/10 08:45:24;;;;;;;12.77;7.30;;;;;;;12.12;89.85;101257.67;5092478;56;1141337;-68
2022/10/10 08:50:57;;;;;;;11.73;6.57;;;;;;;12.31;90.85;101238.15;5103964;56;1140701;-72
2022/10/10 08:56:05;;;;;;;10.43;6.73;;;;;;;12.60;89.38;101237.31;5079606;57;1141169;-68
2022/10/10 09:01:30;;;;;;;9.17;6.20;;;;;;;12.81;89.32;101238.01;5115568;56;1140502;-74
2022/10/10 09:06:58;;;;;;;13.70;7.73;;;;;;;13.00;87.32;101232.48;5116702;57;1138995;-68
2022/10/10 09:12:29;;;;;;;11.33;6.23;;;;;;;13.07;87.11;101229.38;5068124;57;1140716;-70
2022/10/10 09:17:52;;;;;;;14.47;6.93;;;;;;;13.13;87.65;101233.75;5027113;57;1140994;-71
